Time;durP1;ratioP1;P1;durP2;ratioP2;P2;SDS_P1;SDS_P2;PMS_P1;PMS_P2;Temp;Humidity;BMP_temperature;BMP_pressure;BME280_temperature;BME280_humidity;BME280_pressure;Samples;Min_cycle;Max_cycle;Signal;HPM_P1;HPM_P2
2022/03/28 00:01:59;;;;;;;41.47;17.93;;;0.00;94.10;;;;;;5048797;28;20286;-65
2022/03/28 00:04:26;;;;;;;40.17;16.57;;;-0.10;94.30;;;;;;5048631;28;20205;-65
2022/03/28 00:06:53;;;;;;;35.63;16.30;;;-0.20;94.40;;;;;;5048889;28;20205;-65
2022/03/28 00:09:22;;;;;;;34.77;15.97;;;-0.10;94.50;;;;;;5050499;28;20450;-66
2022/03/28 00:11:49;;;;;;;39.00;17.07;;;-0.10;94.40;;;;;;5052337;28;20574;-64
2022/03/28 00:14:16;;;;;;;39.13;16.20;;;-0.10;94.50;;;;;;5052045;28;20281;-64
2022/03/28 00:16:43;;;;;;;38.30;16.57;;;-0.10;94.50;;;;;;5052113;28;20201;-65
2022/03/28 00:19:10;;;;;;;40.57;17.37;;;-0.10;94.50;;;;;;5052166;28;20229;-65
2022/03/28 00:21:37;;;;;;;39.13;16.40;;;-0.10;94.50;;;;;;5052197;28;20209;-65
2022/03/28 00:24:05;;;;;;;39.87;16.60;;;-0.10;94.60;;;;;;5051879;28;20228;-64
2022/03/28 00:26:35;;;;;;;37.93;16.00;;;-0.20;94.60;;;;;;5052106;28;20213;-65
2022/03/28 00:29:02;;;;;;;36.57;16.20;;;-0.20;94.70;;;;;;5052058;28;20254;-64
2022/03/28 00:31:29;;;;;;;39.73;16.93;;;-0.20;94.70;;;;;;5051988;28;20206;-64
2022/03/28 00:33:56;;;;;;;37.90;15.77;;;-0.20;94.70;;;;;;5051551;28;20216;-65
2022/03/28 00:36:23;;;;;;;38.50;15.27;;;-0.20;94.60;;;;;;5051920;28;20209;-64
2022/03/28 00:38:51;;;;;;;35.20;14.37;;;-0.20;94.80;;;;;;5051647;28;20292;-65
2022/03/28 00:41:18;;;;;;;24.23;11.93;;;-0.30;94.80;;;;;;5052108;28;20594;-64
2022/03/28 00:43:54;;;;;;;30.70;13.07;;;-0.30;94.90;;;;;;5051577;28;20209;-66
2022/03/28 00:46:22;;;;;;;25.47;10.80;;;-0.30;94.90;;;;;;5051708;28;20320;-66
2022/03/28 00:48:49;;;;;;;25.70;10.37;;;-0.40;95.00;;;;;;5051759;28;20214;-64
2022/03/28 00:51:17;;;;;;;22.23;10.03;;;-0.40;95.10;;;;;;5051608;28;20276;-66
2022/03/28 00:53:45;;;;;;;20.50;9.00;;;-0.50;95.30;;;;;;5051352;28;20257;-64
2022/03/28 00:56:12;;;;;;;28.43;9.67;;;-0.50;95.40;;;;;;5051490;28;20683;-65
2022/03/28 00:58:39;;;;;;;25.97;8.93;;;-0.50;95.40;;;;;;5051312;28;20732;-66
2022/03/28 01:01:09;;;;;;;22.67;9.10;;;-0.50;95.30;;;;;;5051337;28;20375;-66
2022/03/28 01:03:36;;;;;;;20.70;8.80;;;-0.50;95.30;;;;;;5051516;28;20262;-65
2022/03/28 01:06:04;;;;;;;21.70;9.40;;;-0.50;95.40;;;;;;5051169;28;20209;-65
2022/03/28 01:08:32;;;;;;;19.07;9.30;;;-0.50;95.40;;;;;;5051293;28;20301;-64
2022/03/28 01:11:02;;;;;;;21.07;8.93;;;-0.50;95.30;;;;;;5050896;28;20209;-66
2022/03/28 01:13:30;;;;;;;20.17;8.87;;;-0.50;95.30;;;;;;5051523;28;20190;-66
2022/03/28 01:15:58;;;;;;;21.90;8.67;;;-0.50;95.30;;;;;;5051239;28;20676;-65
2022/03/28 01:18:25;;;;;;;21.00;9.30;;;-0.50;95.50;;;;;;5051300;28;20607;-65
2022/03/28 01:20:56;;;;;;;23.90;9.73;;;-0.50;95.60;;;;;;5050361;28;20233;-64
2022/03/28 01:23:23;;;;;;;21.10;8.70;;;-0.50;95.60;;;;;;5051370;28;20212;-65
2022/03/28 01:25:52;;;;;;;19.80;8.83;;;-0.50;95.50;;;;;;5051084;28;20616;-66
2022/03/28 01:28:20;;;;;;;14.60;7.10;;;-0.50;95.50;;;;;;5051344;28;20697;-66
2022/03/28 01:30:48;;;;;;;19.30;6.80;;;-0.50;95.50;;;;;;5050967;28;20224;-64
2022/03/28 01:33:15;;;;;;;15.27;6.77;;;-0.50;95.40;;;;;;5051075;28;20205;-64
2022/03/28 01:35:44;;;;;;;14.83;6.30;;;-0.60;95.30;;;;;;5050725;28;20212;-63
2022/03/28 01:38:14;;;;;;;12.73;6.00;;;-0.60;95.30;;;;;;5050659;28;20208;-64
2022/03/28 01:40:43;;;;;;;14.00;6.20;;;-0.50;95.40;;;;;;5050935;28;20656;-66
2022/03/28 01:43:10;;;;;;;18.57;6.73;;;-0.50;95.40;;;;;;5050980;28;20552;-64
2022/03/28 01:45:37;;;;;;;13.17;5.47;;;-0.50;95.30;;;;;;5050859;28;20676;-66
2022/03/28 01:48:06;;;;;;;13.47;5.33;;;-0.50;95.40;;;;;;5050615;28;20582;-65
2022/03/28 01:50:33;;;;;;;10.67;5.00;;;-0.50;95.40;;;;;;5050556;28;20234;-65
2022/03/28 01:53:00;;;;;;;12.40;5.47;;;-0.50;95.50;;;;;;5050366;28;20205;-65
2022/03/28 01:55:29;;;;;;;12.83;4.43;;;-0.50;95.40;;;;;;5050713;28;20743;-66
2022/03/28 01:57:56;;;;;;;13.67;4.67;;;-0.50;95.40;;;;;;5050220;28;20613;-65
2022/03/28 02:00:24;;;;;;;14.03;5.13;;;-0.50;95.50;;;;;;5050239;28;20234;-65
2022/03/28 02:02:52;;;;;;;10.40;4.60;;;-0.60;95.60;;;;;;5050247;28;20210;-65
2022/03/28 02:05:19;;;;;;;11.97;4.87;;;-0.60;95.60;;;;;;5050763;28;20618;-65
2022/03/28 02:07:49;;;;;;;12.43;4.47;;;-0.60;95.70;;;;;;5050237;28;20213;-64
2022/03/28 02:10:18;;;;;;;13.00;5.00;;;-0.60;95.70;;;;;;5050251;28;20206;-65
2022/03/28 02:12:47;;;;;;;13.20;5.77;;;-0.60;95.60;;;;;;5050737;28;20255;-66
2022/03/28 02:15:15;;;;;;;12.57;5.77;;;-0.60;95.70;;;;;;5050104;28;20205;-66
2022/03/28 02:17:42;;;;;;;14.57;5.63;;;-0.60;95.70;;;;;;5050307;27;20213;-65
2022/03/28 02:20:11;;;;;;;17.17;5.83;;;-0.60;95.70;;;;;;5050427;28;20619;-64
2022/03/28 02:22:40;;;;;;;14.37;5.57;;;-0.60;95.70;;;;;;5050058;28;20238;-65
2022/03/28 02:25:10;;;;;;;17.17;7.13;;;-0.60;95.80;;;;;;5050522;28;20674;-65
2022/03/28 02:27:37;;;;;;;14.53;6.17;;;-0.60;95.80;;;;;;5050633;28;20590;-65
2022/03/28 02:30:07;;;;;;;18.63;7.30;;;-0.60;96.00;;;;;;5049896;28;20233;-65
2022/03/28 02:32:35;;;;;;;18.53;6.97;;;-0.70;96.10;;;;;;5048874;28;20193;-65
2022/03/28 02:35:02;;;;;;;22.97;7.17;;;-0.60;96.20;;;;;;5049849;28;20214;-66
2022/03/28 02:37:30;;;;;;;20.23;6.90;;;-0.60;96.30;;;;;;5050160;28;20550;-66
2022/03/28 02:39:57;;;;;;;20.57;6.73;;;-0.60;96.30;;;;;;5049963;28;20208;-65
2022/03/28 02:42:25;;;;;;;16.20;6.57;;;-0.60;96.30;;;;;;5049632;28;20205;-65
2022/03/28 02:44:52;;;;;;;16.27;6.90;;;-0.60;96.20;;;;;;5049552;28;20205;-65
2022/03/28 02:47:22;;;;;;;19.40;7.17;;;-0.50;96.20;;;;;;5049568;28;20226;-66
2022/03/28 02:49:49;;;;;;;23.00;7.77;;;-0.50;96.20;;;;;;5049448;28;20218;-64
2022/03/28 02:52:16;;;;;;;21.60;8.33;;;-0.50;96.30;;;;;;5049687;28;20212;-65
2022/03/28 02:54:44;;;;;;;18.83;7.70;;;-0.40;96.20;;;;;;5049369;28;20254;-64
2022/03/28 02:57:11;;;;;;;26.90;9.00;;;-0.40;96.10;;;;;;5049593;28;20244;-65
2022/03/28 02:59:38;;;;;;;22.30;9.17;;;-0.40;96.10;;;;;;5049739;28;20632;-64
2022/03/28 03:02:05;;;;;;;30.33;9.17;;;-0.40;96.20;;;;;;5049583;28;20213;-65
2022/03/28 03:04:34;;;;;;;21.97;9.07;;;-0.40;96.30;;;;;;5049416;28;20212;-65
2022/03/28 03:07:01;;;;;;;28.53;9.37;;;-0.40;96.50;;;;;;5049443;28;20255;-65
2022/03/28 03:09:28;;;;;;;20.47;8.80;;;-0.40;96.50;;;;;;5049600;28;20254;-64
2022/03/28 03:11:55;;;;;;;19.43;8.30;;;-0.40;96.60;;;;;;5049502;28;20221;-65
2022/03/28 03:14:23;;;;;;;26.60;9.57;;;-0.30;96.60;;;;;;5049592;28;20670;-64
2022/03/28 03:16:50;;;;;;;25.53;9.73;;;-0.30;96.50;;;;;;5049120;28;20205;-65
2022/03/28 03:19:17;;;;;;;18.37;7.80;;;-0.30;96.90;;;;;;5049287;28;20300;-65
2022/03/28 03:21:47;;;;;;;23.90;8.60;;;-0.20;96.60;;;;;;5049259;28;20628;-65
2022/03/28 03:24:14;;;;;;;19.37;8.20;;;-0.20;96.80;;;;;;5049517;28;20205;-66
2022/03/28 03:26:41;;;;;;;19.40;7.90;;;-0.20;96.80;;;;;;5049043;28;20265;-64
2022/03/28 03:29:08;;;;;;;20.00;7.57;;;-0.20;96.90;;;;;;5049185;28;20209;-65
2022/03/28 03:31:35;;;;;;;21.07;8.33;;;-0.20;96.90;;;;;;5048833;28;20315;-64
2022/03/28 03:34:02;;;;;;;25.03;9.00;;;-0.20;97.00;;;;;;5049186;28;20213;-64
2022/03/28 03:36:29;;;;;;;22.07;8.20;;;-0.10;97.10;;;;;;5049100;28;20611;-65
2022/03/28 03:38:57;;;;;;;22.07;8.17;;;-0.10;97.00;;;;;;5048913;28;20201;-66
2022/03/28 03:41:24;;;;;;;26.90;9.70;;;-0.10;97.00;;;;;;5048788;28;20205;-64
2022/03/28 03:43:52;;;;;;;24.50;10.20;;;0.00;97.00;;;;;;5048843;28;20543;-65
2022/03/28 03:46:19;;;;;;;24.33;9.40;;;0.00;97.00;;;;;;5048670;28;20236;-65
2022/03/28 03:48:46;;;;;;;28.47;9.93;;;0.00;96.90;;;;;;5048591;28;20265;-65
2022/03/28 03:51:14;;;;;;;29.10;11.17;;;0.00;97.00;;;;;;5049092;28;20221;-65
2022/03/28 03:53:41;;;;;;;25.47;10.67;;;0.00;96.90;;;;;;5048453;28;20300;-64
2022/03/28 03:56:09;;;;;;;29.80;12.13;;;0.00;96.90;;;;;;5048582;28;20296;-65
2022/03/28 03:58:36;;;;;;;31.97;12.10;;;0.00;96.90;;;;;;5048264;28;20599;-64
2022/03/28 04:01:04;;;;;;;32.23;11.30;;;0.00;97.00;;;;;;5048874;28;20211;-64
2022/03/28 04:03:33;;;;;;;32.13;10.83;;;0.10;97.20;;;;;;5048650;28;20620;-65
2022/03/28 04:06:00;;;;;;;28.97;10.10;;;0.10;97.10;;;;;;5048490;28;20210;-66
2022/03/28 04:08:27;;;;;;;28.70;9.97;;;0.10;97.20;;;;;;5048614;28;20608;-65
2022/03/28 04:10:54;;;;;;;20.33;7.53;;;0.20;97.20;;;;;;5048350;28;20221;-65
2022/03/28 04:13:23;;;;;;;18.63;8.33;;;0.20;97.10;;;;;;5048912;28;20458;-66
2022/03/28 04:15:51;;;;;;;21.93;7.20;;;0.20;97.10;;;;;;5048743;28;20209;-65
2022/03/28 04:18:18;;;;;;;18.70;7.53;;;0.20;97.00;;;;;;5048719;28;20206;-64
2022/03/28 04:20:45;;;;;;;16.53;7.17;;;0.30;97.10;;;;;;5048409;28;20530;-65
2022/03/28 04:23:12;;;;;;;24.27;7.53;;;0.30;97.10;;;;;;5048718;28;20727;-66
2022/03/28 04:25:39;;;;;;;15.87;7.23;;;0.30;97.20;;;;;;5048135;28;20206;-65
2022/03/28 04:28:07;;;;;;;21.13;8.00;;;0.30;97.10;;;;;;5048646;28;20209;-65
2022/03/28 04:30:36;;;;;;;20.47;7.50;;;0.30;97.20;;;;;;5048248;28;20312;-66
2022/03/28 04:33:03;;;;;;;21.03;7.40;;;0.40;97.10;;;;;;5048591;28;20201;-65
2022/03/28 04:35:31;;;;;;;17.50;7.70;;;0.40;97.10;;;;;;5048503;28;20632;-65
2022/03/28 04:37:59;;;;;;;18.57;6.73;;;0.50;97.10;;;;;;5048524;28;20202;-65
2022/03/28 04:40:26;;;;;;;22.67;7.23;;;0.50;97.00;;;;;;5048294;28;20604;-65
2022/03/28 04:42:53;;;;;;;17.93;6.43;;;0.60;96.90;;;;;;5048334;28;20574;-64
2022/03/28 04:45:20;;;;;;;14.87;6.20;;;0.70;96.90;;;;;;5047921;28;20254;-65
2022/03/28 04:47:48;;;;;;;11.50;5.43;;;0.70;97.00;;;;;;5047929;28;20237;-65
2022/03/28 04:50:16;;;;;;;10.60;4.53;;;0.80;97.10;;;;;;5047835;28;20258;-65
2022/03/28 04:52:43;;;;;;;12.53;4.70;;;0.90;97.20;;;;;;5048155;28;20201;-65
2022/03/28 04:55:11;;;;;;;10.27;4.23;;;1.00;97.00;;;;;;5049723;28;20205;-64
2022/03/28 04:57:38;;;;;;;7.43;3.47;;;1.00;96.70;;;;;;5051177;28;20302;-65
2022/03/28 05:00:07;;;;;;;12.10;3.70;;;1.10;96.50;;;;;;5051322;28;20217;-64
2022/03/28 05:02:35;;;;;;;11.50;3.70;;;1.10;96.40;;;;;;5051238;28;20232;-65
2022/03/28 05:05:04;;;;;;;6.60;3.57;;;1.20;96.30;;;;;;5051338;28;20209;-65
2022/03/28 05:07:31;;;;;;;10.23;3.90;;;1.20;96.40;;;;;;5051061;28;20247;-65
2022/03/28 05:09:59;;;;;;;10.07;3.77;;;1.30;96.30;;;;;;5050957;28;20209;-65
2022/03/28 05:12:26;;;;;;;10.70;3.43;;;1.40;96.10;;;;;;5051119;28;20225;-65
2022/03/28 05:14:55;;;;;;;7.40;3.30;;;1.40;95.80;;;;;;5051045;28;20213;-66
2022/03/28 05:17:22;;;;;;;8.10;3.60;;;1.50;95.70;;;;;;5051060;28;20675;-67
2022/03/28 05:19:50;;;;;;;9.50;4.50;;;1.50;95.50;;;;;;5051167;28;20202;-65
2022/03/28 05:22:19;;;;;;;10.40;3.67;;;1.60;95.50;;;;;;5051125;28;20643;-66
2022/03/28 05:24:46;;;;;;;14.23;3.97;;;1.60;95.40;;;;;;5051322;28;20285;-66
2022/03/28 05:27:13;;;;;;;6.03;3.07;;;1.60;95.80;;;;;;5051253;28;20210;-65
2022/03/28 05:29:40;;;;;;;7.23;3.40;;;1.70;95.00;;;;;;5051143;28;20643;-64
2022/03/28 05:32:08;;;;;;;11.60;3.20;;;1.70;94.60;;;;;;5050743;28;20217;-65
2022/03/28 05:34:35;;;;;;;8.20;3.60;;;1.60;94.70;;;;;;5050689;28;20227;-65
2022/03/28 05:37:05;;;;;;;9.77;3.50;;;1.70;94.90;;;;;;5050572;28;20209;-65
2022/03/28 05:39:34;;;;;;;6.20;3.33;;;1.70;94.60;;;;;;5050522;28;20238;-66
2022/03/28 05:42:02;;;;;;;8.57;3.30;;;1.80;94.80;;;;;;5050545;28;20205;-65
2022/03/28 05:44:29;;;;;;;7.23;3.13;;;1.90;94.80;;;;;;5050810;28;20606;-65
2022/03/28 05:46:56;;;;;;;5.07;3.07;;;2.00;94.50;;;;;;5050429;28;20294;-65
2022/03/28 05:49:23;;;;;;;7.00;3.00;;;2.00;94.30;;;;;;5050509;28;20735;-66
2022/03/28 05:51:51;;;;;;;9.60;3.30;;;2.10;94.50;;;;;;5050685;28;20628;-65
2022/03/28 05:54:18;;;;;;;7.40;3.30;;;2.10;94.20;;;;;;5050300;28;20208;-65
2022/03/28 05:56:48;;;;;;;6.90;3.60;;;2.10;94.00;;;;;;5050384;28;20689;-65
2022/03/28 05:59:15;;;;;;;6.17;3.30;;;2.20;94.50;;;;;;5050215;28;20200;-65
2022/03/28 06:01:43;;;;;;;12.30;3.00;;;2.30;94.10;;;;;;5050670;28;20209;-65
2022/03/28 06:04:10;;;;;;;6.53;3.03;;;2.40;93.80;;;;;;5050220;28;20201;-66
2022/03/28 06:06:37;;;;;;;5.97;2.90;;;2.50;93.70;;;;;;5050719;28;20701;-66
2022/03/28 06:09:05;;;;;;;6.67;2.83;;;2.50;93.40;;;;;;5050246;28;20205;-65
2022/03/28 06:11:32;;;;;;;7.80;3.10;;;2.60;93.40;;;;;;5050233;28;20225;-68
2022/03/28 06:14:01;;;;;;;5.43;2.93;;;2.60;93.30;;;;;;5050368;28;20216;-65
2022/03/28 06:16:28;;;;;;;7.47;2.87;;;2.70;93.40;;;;;;5050285;28;20658;-66
2022/03/28 06:18:55;;;;;;;6.10;2.67;;;2.80;93.20;;;;;;5049971;28;20216;-66
2022/03/28 06:21:23;;;;;;;6.50;3.10;;;2.90;93.00;;;;;;5050008;28;20274;-66
2022/03/28 06:23:50;;;;;;;6.27;3.03;;;2.90;92.90;;;;;;5050176;28;20208;-66
2022/03/28 06:26:18;;;;;;;6.40;3.10;;;3.10;92.80;;;;;;5050009;28;20213;-65
2022/03/28 06:28:46;;;;;;;7.00;3.50;;;3.20;92.80;;;;;;5049927;28;20216;-67
2022/03/28 06:31:15;;;;;;;7.70;3.50;;;3.20;92.30;;;;;;5049863;28;20232;-66
2022/03/28 06:33:43;;;;;;;8.80;3.63;;;3.30;92.20;;;;;;5049907;28;20216;-65
2022/03/28 06:36:11;;;;;;;5.70;3.10;;;3.40;92.30;;;;;;5049816;28;20300;-66
2022/03/28 06:38:38;;;;;;;6.17;2.90;;;3.40;92.00;;;;;;5049952;28;20212;-65
2022/03/28 06:41:06;;;;;;;4.97;2.70;;;3.50;92.00;;;;;;5049698;28;20220;-66
2022/03/28 06:43:34;;;;;;;6.27;2.70;;;3.60;91.90;;;;;;5049634;28;20245;-66
2022/03/28 06:46:01;;;;;;;8.93;3.07;;;3.60;91.60;;;;;;5050004;28;20591;-66
2022/03/28 06:48:31;;;;;;;6.97;3.33;;;3.70;91.30;;;;;;5049712;28;20326;-64
2022/03/28 06:50:58;;;;;;;10.23;2.97;;;3.80;91.20;;;;;;5049888;28;20580;-65
2022/03/28 06:53:26;;;;;;;6.13;2.80;;;3.90;91.20;;;;;;5049318;28;20580;-68
2022/03/28 06:55:54;;;;;;;6.13;2.87;;;4.00;90.80;;;;;;5049603;28;20646;-65
2022/03/28 06:58:21;;;;;;;5.67;2.57;;;4.10;90.70;;;;;;5049303;28;20246;-66
2022/03/28 07:00:49;;;;;;;6.67;2.90;;;4.10;90.60;;;;;;5049535;28;20287;-66
2022/03/28 07:03:17;;;;;;;5.90;2.90;;;4.20;90.20;;;;;;5049090;28;20304;-64
2022/03/28 07:05:46;;;;;;;6.00;2.60;;;4.40;90.30;;;;;;5049312;28;20292;-65
2022/03/28 07:08:14;;;;;;;4.50;2.60;;;4.40;88.70;;;;;;5049129;28;20205;-65
2022/03/28 07:10:42;;;;;;;4.70;2.47;;;4.40;88.60;;;;;;5049479;28;20240;-65
2022/03/28 07:13:10;;;;;;;4.93;2.60;;;4.50;88.80;;;;;;5049071;28;20318;-65
2022/03/28 07:15:37;;;;;;;5.90;2.80;;;4.50;87.50;;;;;;5049509;28;20686;-64
2022/03/28 07:18:07;;;;;;;4.63;2.50;;;4.60;87.30;;;;;;5047288;28;20297;-65
2022/03/28 07:20:35;;;;;;;9.37;3.17;;;4.60;87.40;;;;;;5048978;28;20205;-65
2022/03/28 07:23:06;;;;;;;4.90;2.73;;;4.70;86.80;;;;;;5048888;28;20201;-65
2022/03/28 07:25:34;;;;;;;3.93;2.27;;;4.70;86.30;;;;;;5049418;28;20198;-66
2022/03/28 07:28:08;;;;;;;3.27;2.20;;;4.70;86.90;;;;;;5049314;28;20712;-66
2022/03/28 07:30:36;;;;;;;6.70;2.30;;;4.80;85.80;;;;;;5049518;28;20196;-67
2022/03/28 07:33:04;;;;;;;4.80;2.30;;;4.80;85.70;;;;;;5048794;28;20266;-66
2022/03/28 07:35:32;;;;;;;4.93;2.50;;;4.90;85.10;;;;;;5048859;28;20205;-65
2022/03/28 07:38:01;;;;;;;5.60;2.40;;;5.00;85.00;;;;;;5048891;28;20212;-65
2022/03/28 07:40:30;;;;;;;6.13;2.30;;;5.10;84.70;;;;;;5049397;28;20665;-65
2022/03/28 07:42:58;;;;;;;5.60;2.53;;;5.20;85.20;;;;;;5048673;28;20296;-64
2022/03/28 07:45:26;;;;;;;3.30;2.30;;;5.30;83.80;;;;;;5048679;28;20312;-66
2022/03/28 07:47:54;;;;;;;6.97;2.77;;;5.40;84.10;;;;;;5048639;28;20211;-65
2022/03/28 07:50:21;;;;;;;6.50;2.43;;;5.50;83.20;;;;;;5048829;28;20267;-67
2022/03/28 07:52:50;;;;;;;5.93;2.67;;;5.60;82.80;;;;;;5048538;28;20225;-66
2022/03/28 07:55:18;;;;;;;4.53;1.90;;;5.70;83.10;;;;;;5013565;28;20208;-66
2022/03/28 07:57:48;;;;;;;5.63;1.97;;;5.80;82.00;;;;;;5048523;28;20558;-66
2022/03/28 08:00:17;;;;;;;3.70;2.27;;;5.90;81.90;;;;;;5048513;28;20305;-66
2022/03/28 08:02:45;;;;;;;4.00;1.97;;;6.00;82.10;;;;;;5048654;28;20288;-65
2022/03/28 08:05:13;;;;;;;5.80;2.23;;;6.00;82.30;;;;;;5048364;28;20662;-66
2022/03/28 08:07:41;;;;;;;7.90;2.23;;;6.10;81.90;;;;;;5048868;28;20218;-65
2022/03/28 08:10:10;;;;;;;4.83;2.03;;;6.10;82.40;;;;;;5048227;28;20300;-65
2022/03/28 08:12:38;;;;;;;6.77;2.13;;;6.20;82.20;;;;;;5048416;28;20217;-66
2022/03/28 08:15:09;;;;;;;2.97;2.00;;;6.20;82.00;;;;;;5048325;28;20236;-65
2022/03/28 08:17:37;;;;;;;5.27;2.27;;;6.20;82.20;;;;;;5048619;27;20292;-65
2022/03/28 08:20:09;;;;;;;3.70;1.90;;;6.40;82.40;;;;;;5048127;28;20296;-66
2022/03/28 08:22:36;;;;;;;4.33;2.13;;;6.50;82.70;;;;;;5048481;28;20201;-64
2022/03/28 08:25:04;;;;;;;4.60;2.27;;;6.50;82.20;;;;;;5048026;28;20300;-66
2022/03/28 08:27:32;;;;;;;5.13;2.30;;;6.70;82.50;;;;;;5048263;28;20633;-66
2022/03/28 08:30:00;;;;;;;3.50;2.03;;;6.80;82.20;;;;;;5050028;28;20722;-66
2022/03/28 08:32:29;;;;;;;8.10;2.50;;;6.90;81.60;;;;;;5051698;28;20229;-66
2022/03/28 08:34:56;;;;;;;5.77;2.23;;;7.00;82.00;;;;;;5050396;28;20416;-66
2022/03/28 08:37:27;;;;;;;7.20;2.43;;;7.10;82.10;;;;;;5052010;28;20631;-66
2022/03/28 08:39:55;;;;;;;7.23;2.40;;;7.20;81.80;;;;;;5016132;28;20202;-66
2022/03/28 08:42:24;;;;;;;7.00;2.27;;;7.30;81.60;;;;;;5051215;28;20202;-65
2022/03/28 08:44:52;;;;;;;7.87;2.30;;;7.40;82.10;;;;;;5051374;28;20245;-66
2022/03/28 08:47:21;;;;;;;9.23;2.70;;;7.50;81.30;;;;;;5051712;28;20201;-67
2022/03/28 08:49:51;;;;;;;9.30;2.63;;;7.60;80.90;;;;;;5051218;28;20304;-64
2022/03/28 08:52:20;;;;;;;8.87;2.33;;;7.60;81.60;;;;;;5051297;28;20244;-65
2022/03/28 08:54:49;;;;;;;4.43;2.40;;;7.70;81.20;;;;;;5051274;28;20640;-65
2022/03/28 08:57:17;;;;;;;4.47;2.40;;;7.80;81.70;;;;;;5051135;28;20237;-65
2022/03/28 08:59:44;;;;;;;5.33;2.70;;;7.90;81.60;;;;;;5051312;28;20301;-67
2022/03/28 09:02:41;;;;;;;5.20;3.03;;;8.00;81.20;;;;;;5051086;28;20198;-66
2022/03/28 09:05:11;;;;;;;12.03;3.23;;;8.10;81.70;;;;;;5051112;28;20193;-65
2022/03/28 09:07:39;;;;;;;6.10;2.60;;;8.20;81.20;;;;;;5051259;28;20209;-65
2022/03/28 09:10:09;;;;;;;6.90;3.03;;;8.30;81.80;;;;;;5050941;28;20301;-65
2022/03/28 09:12:41;;;;;;;7.37;3.30;;;8.40;81.00;;;;;;5048831;28;20407;-65
2022/03/28 09:15:14;;;;;;;10.70;4.03;;;8.50;80.90;;;;;;5051140;28;20216;-68
2022/03/28 09:17:42;;;;;;;8.07;3.57;;;8.60;81.60;;;;;;5051166;27;20555;-66
2022/03/28 09:20:11;;;;;;;5.97;3.40;;;8.70;81.30;;;;;;5050914;28;20205;-67
2022/03/28 09:22:41;;;;;;;9.80;3.40;;;8.80;81.50;;;;;;5051610;28;20622;-66
2022/03/28 09:25:12;;;;;;;6.40;2.97;;;8.90;80.90;;;;;;5050987;28;20211;-66
2022/03/28 09:27:44;;;;;;;8.33;3.00;;;9.00;79.90;;;;;;5050985;28;20198;-66
2022/03/28 09:30:14;;;;;;;9.40;3.27;;;9.00;80.30;;;;;;5050951;27;20198;-65
2022/03/28 09:32:44;;;;;;;8.00;3.40;;;9.10;80.10;;;;;;5051160;28;20320;-69
2022/03/28 09:35:19;;;;;;;11.63;3.00;;;9.20;79.90;;;;;;5051017;28;20208;-66
2022/03/28 09:37:58;;;;;;;8.10;3.13;;;9.20;80.00;;;;;;5050745;28;20216;-65
2022/03/28 09:40:29;;;;;;;4.77;2.77;;;9.30;79.70;;;;;;5049204;28;20730;-66
2022/03/28 09:42:57;;;;;;;9.77;3.10;;;9.30;79.30;;;;;;5050881;28;20211;-66
2022/03/28 09:45:27;;;;;;;6.10;2.80;;;9.40;79.80;;;;;;5050522;28;20232;-65
2022/03/28 09:48:01;;;;;;;9.70;2.93;;;9.50;79.70;;;;;;5050562;28;20209;-66
2022/03/28 09:50:32;;;;;;;7.87;2.33;;;9.60;79.80;;;;;;5050507;28;20221;-66
2022/03/28 09:53:12;;;;;;;6.70;3.07;;;9.60;79.50;;;;;;5050486;28;20252;-66
2022/03/28 09:55:52;;;;;;;11.50;2.93;;;9.70;79.00;;;;;;5050577;28;20190;-65
2022/03/28 09:58:42;;;;;;;11.67;3.10;;;9.80;79.30;;;;;;5050287;28;20324;-68
2022/03/28 10:01:14;;;;;;;9.30;2.67;;;10.00;78.20;;;;;;5050843;28;20627;-65
2022/03/28 10:03:44;;;;;;;7.00;2.80;;;10.00;78.00;;;;;;5050256;28;20277;-66
2022/03/28 10:06:14;;;;;;;7.40;2.80;;;10.10;77.70;;;;;;5050291;28;20244;-67
2022/03/28 10:08:42;;;;;;;5.53;2.67;;;10.20;77.90;;;;;;5050773;28;20309;-67
2022/03/28 10:11:11;;;;;;;5.57;2.63;;;10.30;77.40;;;;;;5050591;28;20327;-67
2022/03/28 10:13:39;;;;;;;12.03;2.97;;;10.30;77.30;;;;;;5050225;28;20222;-66
2022/03/28 10:16:09;;;;;;;9.67;3.23;;;10.40;77.10;;;;;;5050332;28;20209;-69
2022/03/28 10:18:38;;;;;;;7.77;2.80;;;10.40;77.00;;;;;;5050215;28;20296;-66
2022/03/28 10:21:09;;;;;;;6.80;2.70;;;10.40;76.80;;;;;;5050293;28;20299;-66
2022/03/28 10:23:43;;;;;;;7.47;2.80;;;10.50;77.30;;;;;;5050167;28;20190;-66
2022/03/28 10:26:11;;;;;;;6.77;2.90;;;10.60;77.30;;;;;;5050066;28;20193;-66
2022/03/28 10:28:40;;;;;;;11.50;3.10;;;10.70;77.40;;;;;;5049771;28;20202;-65
2022/03/28 10:31:25;;;;;;;5.37;2.20;;;10.70;76.90;;;;;;5049975;28;20217;-65
2022/03/28 10:33:54;;;;;;;7.97;2.53;;;10.80;76.50;;;;;;5049890;28;20273;-65
2022/03/28 10:36:24;;;;;;;9.97;3.10;;;10.90;76.40;;;;;;5049899;28;20214;-65
2022/03/28 10:38:53;;;;;;;8.90;2.57;;;11.00;76.90;;;;;;5050246;28;20252;-66
2022/03/28 10:41:22;;;;;;;9.77;2.93;;;11.00;76.80;;;;;;5049624;28;20205;-65
2022/03/28 10:43:50;;;;;;;8.67;2.93;;;11.10;75.70;;;;;;5049716;28;20235;-66
2022/03/28 10:46:19;;;;;;;7.57;2.53;;;11.10;75.60;;;;;;5049600;28;20316;-65
2022/03/28 10:48:48;;;;;;;6.77;2.50;;;11.10;75.80;;;;;;5049635;28;20225;-66
2022/03/28 10:51:18;;;;;;;8.23;2.93;;;11.10;75.50;;;;;;5050045;28;20265;-66
2022/03/28 10:53:47;;;;;;;6.47;2.70;;;11.10;76.40;;;;;;5048758;28;20221;-67
2022/03/28 10:56:18;;;;;;;11.03;3.10;;;11.20;75.60;;;;;;5049550;28;20205;-66
2022/03/28 10:58:50;;;;;;;8.00;2.73;;;11.20;75.70;;;;;;5049240;28;20264;-65
2022/03/28 11:01:30;;;;;;;11.07;2.80;;;11.30;75.70;;;;;;5049425;28;20283;-65
2022/03/28 11:04:04;;;;;;;7.83;2.60;;;11.30;75.50;;;;;;5049380;28;20193;-64
2022/03/28 11:06:52;;;;;;;11.47;3.40;;;11.30;75.60;;;;;;5049776;28;20703;-66
2022/03/28 11:09:44;;;;;;;13.07;3.13;;;11.30;75.50;;;;;;5049457;28;20196;-66
2022/03/28 11:12:15;;;;;;;7.63;2.70;;;11.40;75.40;;;;;;5049503;28;20198;-66
2022/03/28 11:14:45;;;;;;;7.73;3.00;;;11.40;75.20;;;;;;5049386;28;20190;-66
2022/03/28 11:17:18;;;;;;;14.50;3.00;;;11.50;75.10;;;;;;5049415;28;20260;-65
2022/03/28 11:20:13;;;;;;;12.80;2.87;;;11.60;75.40;;;;;;5049100;28;20281;-65
2022/03/28 11:22:47;;;;;;;12.07;2.60;;;11.60;74.80;;;;;;5049071;28;20196;-66
2022/03/28 11:25:46;;;;;;;15.20;3.17;;;11.70;74.50;;;;;;5049292;28;20195;-65
2022/03/28 11:28:27;;;;;;;9.53;3.10;;;11.70;73.90;;;;;;5049072;28;20197;-66
2022/03/28 11:31:01;;;;;;;9.20;3.10;;;11.70;74.40;;;;;;5049529;28;20655;-65
2022/03/28 11:33:41;;;;;;;14.53;3.07;;;11.80;74.60;;;;;;5048753;28;20217;-66
2022/03/28 11:36:10;;;;;;;9.37;2.90;;;11.80;73.70;;;;;;5049027;28;20205;-65
2022/03/28 11:38:39;;;;;;;9.13;3.00;;;11.90;73.50;;;;;;5049060;28;20205;-65
2022/03/28 11:41:08;;;;;;;15.93;3.27;;;11.90;73.60;;;;;;5048829;28;20251;-65
2022/03/28 11:43:38;;;;;;;6.70;2.93;;;12.00;73.40;;;;;;5048596;28;20292;-65
2022/03/28 11:46:14;;;;;;;6.03;2.70;;;12.00;73.60;;;;;;5048875;28;20225;-66
2022/03/28 11:48:57;;;;;;;9.23;3.10;;;12.10;73.40;;;;;;5048906;28;20272;-66
2022/03/28 11:51:25;;;;;;;10.23;3.07;;;12.10;72.40;;;;;;5049303;28;20217;-66
2022/03/28 11:53:53;;;;;;;12.70;3.33;;;12.10;71.90;;;;;;5048927;28;20304;-67
2022/03/28 11:56:25;;;;;;;15.50;3.47;;;12.10;72.20;;;;;;5048653;28;20205;-66
2022/03/28 11:59:01;;;;;;;12.80;3.07;;;12.20;72.40;;;;;;5048410;28;20244;-65
2022/03/28 12:01:29;;;;;;;13.43;2.90;;;12.30;72.00;;;;;;5048527;28;20228;-66
2022/03/28 12:03:57;;;;;;;10.67;2.70;;;12.30;71.50;;;;;;5049952;28;20634;-66
2022/03/28 12:06:29;;;;;;;11.97;3.00;;;12.30;71.30;;;;;;5103087;28;20284;-65
2022/03/28 12:08:57;;;;;;;15.67;3.40;;;12.40;71.40;;;;;;5052099;28;20550;-64
2022/03/28 12:11:26;;;;;;;15.80;3.27;;;12.50;70.50;;;;;;5052035;28;20205;-66
2022/03/28 12:13:55;;;;;;;14.27;3.27;;;12.50;70.30;;;;;;5051926;28;20229;-66
2022/03/28 12:16:23;;;;;;;20.00;3.67;;;12.50;70.20;;;;;;5050527;28;20216;-65
2022/03/28 12:18:53;;;;;;;19.07;3.60;;;12.60;70.50;;;;;;5051984;27;20205;-65
2022/03/28 12:21:21;;;;;;;9.60;2.90;;;12.70;70.40;;;;;;5052061;28;20205;-66
2022/03/28 12:23:49;;;;;;;13.47;3.00;;;12.80;70.70;;;;;;5051880;28;20253;-66
2022/03/28 12:26:16;;;;;;;12.77;3.07;;;12.80;70.10;;;;;;5051965;28;20202;-65
2022/03/28 12:28:46;;;;;;;18.20;3.30;;;12.90;69.60;;;;;;5051720;28;20322;-66
2022/03/28 12:31:16;;;;;;;16.63;3.20;;;12.90;69.80;;;;;;5051736;28;20576;-64
2022/03/28 12:33:47;;;;;;;10.73;3.10;;;13.00;69.20;;;;;;5052304;28;20221;-65
2022/03/28 12:36:22;;;;;;;11.53;3.60;;;13.00;69.70;;;;;;5052123;28;20734;-65
2022/03/28 12:38:58;;;;;;;10.93;3.00;;;13.00;68.70;;;;;;5051777;28;20193;-66
2022/03/28 12:41:27;;;;;;;13.37;3.30;;;13.10;69.00;;;;;;5051806;28;20711;-67
2022/03/28 12:43:55;;;;;;;11.73;3.00;;;13.10;69.20;;;;;;5051992;28;20663;-66
2022/03/28 12:46:24;;;;;;;9.20;3.00;;;13.10;69.30;;;;;;5051316;28;20261;-66
2022/03/28 12:48:54;;;;;;;8.13;2.57;;;13.20;69.50;;;;;;5051762;28;20730;-67
2022/03/28 12:51:26;;;;;;;7.53;3.20;;;13.20;69.50;;;;;;5051347;28;20245;-66
2022/03/28 12:54:02;;;;;;;16.93;3.37;;;13.30;69.40;;;;;;5051346;28;20229;-65
2022/03/28 12:56:31;;;;;;;9.97;2.70;;;13.30;69.30;;;;;;5051207;28;20280;-66